Time;durP1;ratioP1;P1;durP2;ratioP2;P2;SDS_P1;SDS_P2;PMS_P1;PMS_P2;Temp;Humidity;BMP_temperature;BMP_pressure;BME280_temperature;BME280_humidity;BME280_pressure;Samples;Min_cycle;Max_cycle;Signal;HPM_P1;HPM_P2
2024/03/16 00:02:04;;;;;;;31.45;18.15;;;;;;;;;;5052510;28;20021;-50
2024/03/16 00:04:29;;;;;;;31.92;18.48;;;;;;;;;;5042573;28;20097;-50
2024/03/16 00:06:55;;;;;;;33.63;18.15;;;;;;;;;;5045519;28;20063;-49
2024/03/16 00:09:21;;;;;;;31.80;17.58;;;;;;;;;;5041998;28;20112;-49
2024/03/16 00:11:46;;;;;;;34.70;17.80;;;;;;;;;;5059330;28;20028;-51
2024/03/16 00:14:12;;;;;;;36.15;19.35;;;;;;;;;;5062712;28;20036;-48
2024/03/16 00:16:37;;;;;;;35.05;18.33;;;;;;;;;;5060451;28;20066;-47
2024/03/16 00:19:03;;;;;;;31.33;19.10;;;;;;;;;;5046585;28;20025;-50
2024/03/16 00:21:29;;;;;;;29.23;17.40;;;;;;;;;;5050619;28;20033;-48
2024/03/16 00:23:54;;;;;;;30.65;17.73;;;;;;;;;;5041839;28;20025;-51
2024/03/16 00:26:20;;;;;;;30.77;18.05;;;;;;;;;;5055651;28;20048;-47
2024/03/16 00:28:46;;;;;;;29.38;17.27;;;;;;;;;;5062901;28;20386;-47
2024/03/16 00:31:13;;;;;;;31.83;18.70;;;;;;;;;;5060315;28;20029;-48
2024/03/16 00:33:38;;;;;;;34.22;18.25;;;;;;;;;;5062352;28;20116;-54
2024/03/16 00:36:04;;;;;;;35.05;18.88;;;;;;;;;;5062743;28;20108;-50
2024/03/16 00:38:29;;;;;;;35.10;18.10;;;;;;;;;;5065909;28;20115;-49
2024/03/16 00:40:54;;;;;;;32.40;17.55;;;;;;;;;;5054276;28;20029;-49
2024/03/16 00:43:20;;;;;;;32.75;19.15;;;;;;;;;;5046099;28;20108;-47
2024/03/16 00:45:45;;;;;;;30.42;18.98;;;;;;;;;;5053425;28;20027;-50
2024/03/16 00:48:12;;;;;;;34.55;18.58;;;;;;;;;;5066042;28;20138;-49
2024/03/16 00:50:37;;;;;;;39.20;19.83;;;;;;;;;;5056781;28;20082;-49
2024/03/16 00:53:03;;;;;;;31.80;19.67;;;;;;;;;;5045126;28;20032;-48
2024/03/16 00:55:28;;;;;;;43.78;21.10;;;;;;;;;;5051814;28;20029;-48
2024/03/16 00:57:53;;;;;;;39.65;19.67;;;;;;;;;;5065767;28;20012;-49
2024/03/16 01:00:18;;;;;;;38.60;19.88;;;;;;;;;;5063916;28;20408;-51
2024/03/16 01:02:44;;;;;;;37.03;19.67;;;;;;;;;;5047980;28;20024;-47
2024/03/16 01:05:09;;;;;;;46.08;21.75;;;;;;;;;;5063478;28;20024;-48
2024/03/16 01:07:34;;;;;;;39.45;20.55;;;;;;;;;;5044859;28;20041;-49
2024/03/16 01:10:00;;;;;;;43.85;20.88;;;;;;;;;;5048288;28;20031;-52
2024/03/16 01:12:25;;;;;;;40.47;20.90;;;;;;;;;;5050407;28;20848;-50
2024/03/16 01:14:51;;;;;;;46.03;21.33;;;;;;;;;;5035380;28;20610;-51
2024/03/16 01:17:16;;;;;;;44.03;21.23;;;;;;;;;;5048996;28;20024;-47
2024/03/16 01:19:41;;;;;;;41.20;21.38;;;;;;;;;;5045079;28;20054;-48
2024/03/16 01:22:07;;;;;;;39.40;21.02;;;;;;;;;;5065490;28;20783;-47
2024/03/16 01:24:32;;;;;;;42.67;20.67;;;;;;;;;;5045461;28;20517;-49
2024/03/16 01:26:57;;;;;;;41.30;21.90;;;;;;;;;;5056302;28;20024;-51
2024/03/16 01:29:23;;;;;;;35.72;19.42;;;;;;;;;;5045057;28;20025;-47
2024/03/16 01:31:49;;;;;;;36.13;20.23;;;;;;;;;;5045356;28;20028;-51
2024/03/16 01:34:14;;;;;;;41.67;21.05;;;;;;;;;;5065084;28;20071;-49
2024/03/16 01:36:39;;;;;;;38.97;19.92;;;;;;;;;;5047476;28;20013;-50
2024/03/16 01:39:05;;;;;;;34.05;19.60;;;;;;;;;;5048339;28;21389;-49
2024/03/16 01:41:31;;;;;;;39.92;20.42;;;;;;;;;;5063242;28;20036;-50
2024/03/16 01:44:09;;;;;;;44.00;21.02;;;;;;;;;;5065154;28;20535;-52
2024/03/16 01:46:34;;;;;;;42.30;21.15;;;;;;;;;;5062219;28;20029;-48
2024/03/16 01:48:59;;;;;;;36.05;20.17;;;;;;;;;;5050396;28;20079;-49
2024/03/16 01:51:25;;;;;;;32.63;19.23;;;;;;;;;;5045223;28;20025;-46
2024/03/16 01:53:50;;;;;;;38.92;21.27;;;;;;;;;;5045058;28;20385;-50
2024/03/16 01:56:15;;;;;;;35.85;19.73;;;;;;;;;;5044837;28;20063;-50
2024/03/16 01:58:45;;;;;;;37.00;19.98;;;;;;;;;;5044953;28;20374;-49
2024/03/16 02:01:10;;;;;;;35.38;19.95;;;;;;;;;;5056628;28;20106;-53
2024/03/16 02:03:35;;;;;;;40.85;20.73;;;;;;;;;;5045520;28;20485;-48
2024/03/16 02:06:01;;;;;;;39.47;22.17;;;;;;;;;;5061955;28;20036;-50
2024/03/16 02:08:26;;;;;;;39.17;20.33;;;;;;;;;;5062876;28;20090;-51
2024/03/16 02:10:51;;;;;;;36.30;20.67;;;;;;;;;;5052885;28;20029;-51
2024/03/16 02:13:16;;;;;;;36.08;20.65;;;;;;;;;;5064631;28;20028;-48
2024/03/16 02:15:42;;;;;;;37.83;20.63;;;;;;;;;;5061916;28;20025;-51
2024/03/16 02:18:09;;;;;;;42.35;21.65;;;;;;;;;;5044526;28;20024;-49
2024/03/16 02:20:34;;;;;;;37.63;20.00;;;;;;;;;;5051257;28;20388;-50
2024/03/16 02:23:00;;;;;;;36.67;21.50;;;;;;;;;;5062023;28;20035;-46
2024/03/16 02:25:25;;;;;;;40.58;21.13;;;;;;;;;;5056743;28;20024;-53
2024/03/16 02:27:51;;;;;;;40.90;21.23;;;;;;;;;;5044243;28;20024;-52
2024/03/16 02:30:16;;;;;;;36.53;20.58;;;;;;;;;;5047745;28;20436;-52
2024/03/16 02:32:41;;;;;;;43.28;21.48;;;;;;;;;;5064390;28;20109;-49
2024/03/16 02:35:10;;;;;;;44.22;21.13;;;;;;;;;;5060484;28;20021;-51
2024/03/16 02:37:36;;;;;;;38.85;20.67;;;;;;;;;;5064112;28;20103;-51
2024/03/16 02:40:03;;;;;;;37.95;21.13;;;;;;;;;;5063870;28;20115;-47
2024/03/16 02:42:29;;;;;;;35.85;21.05;;;;;;;;;;5046064;28;20020;-51
2024/03/16 02:44:54;;;;;;;43.40;22.40;;;;;;;;;;5044538;28;20397;-51
2024/03/16 02:47:20;;;;;;;35.20;20.65;;;;;;;;;;5051857;28;20028;-50
2024/03/16 02:49:48;;;;;;;37.92;21.65;;;;;;;;;;5063655;28;20064;-48
2024/03/16 02:52:13;;;;;;;33.22;19.05;;;;;;;;;;5053618;28;20028;-48
2024/03/16 02:54:38;;;;;;;40.58;21.42;;;;;;;;;;5062125;28;20031;-50
2024/03/16 02:57:03;;;;;;;41.60;20.52;;;;;;;;;;5044315;28;20032;-51
2024/03/16 02:59:29;;;;;;;38.50;19.70;;;;;;;;;;5029046;28;20469;-48
2024/03/16 03:01:57;;;;;;;35.00;19.08;;;;;;;;;;5043871;28;20048;-47
2024/03/16 03:04:23;;;;;;;36.53;19.85;;;;;;;;;;5044237;28;20037;-51
2024/03/16 03:06:48;;;;;;;37.92;20.30;;;;;;;;;;5045729;28;20402;-50
2024/03/16 03:09:14;;;;;;;37.33;20.65;;;;;;;;;;5044014;28;20033;-48
2024/03/16 03:11:39;;;;;;;39.22;20.70;;;;;;;;;;5045026;28;20381;-46
2024/03/16 03:14:06;;;;;;;44.70;22.58;;;;;;;;;;5063872;28;20035;-49
2024/03/16 03:16:31;;;;;;;44.05;23.08;;;;;;;;;;5061081;28;20047;-48
2024/03/16 03:18:57;;;;;;;41.33;22.35;;;;;;;;;;5058594;28;20016;-51
2024/03/16 03:21:22;;;;;;;43.92;22.80;;;;;;;;;;5043486;28;20024;-50
2024/03/16 03:23:47;;;;;;;47.88;24.05;;;;;;;;;;5063575;28;20024;-51
2024/03/16 03:26:13;;;;;;;46.40;22.48;;;;;;;;;;5062019;28;20024;-49
2024/03/16 03:28:38;;;;;;;44.63;22.85;;;;;;;;;;5063080;28;20016;-48
2024/03/16 03:31:04;;;;;;;44.33;23.98;;;;;;;;;;5045233;28;20473;-49
2024/03/16 03:33:29;;;;;;;45.78;23.17;;;;;;;;;;5043375;28;20036;-49
2024/03/16 03:35:55;;;;;;;46.90;22.23;;;;;;;;;;5042839;28;20021;-49
2024/03/16 03:38:20;;;;;;;48.65;23.10;;;;;;;;;;5059469;28;20363;-52
2024/03/16 03:40:45;;;;;;;40.97;22.23;;;;;;;;;;5048467;28;20449;-49
2024/03/16 03:43:17;;;;;;;41.92;22.63;;;;;;;;;;5058259;28;20274;-49
2024/03/16 03:48:24;;;;;;;41.40;21.40;;;;;;;;;;5061350;28;20560;-48
2024/03/16 03:50:50;;;;;;;43.00;21.63;;;;;;;;;;5063591;28;20042;-49
2024/03/16 03:53:19;;;;;;;44.20;23.08;;;;;;;;;;5061220;28;20115;-51
2024/03/16 03:55:44;;;;;;;39.97;21.70;;;;;;;;;;5063478;28;20043;-47
2024/03/16 03:58:09;;;;;;;39.90;21.15;;;;;;;;;;5061141;28;20040;-50
2024/03/16 04:00:35;;;;;;;40.85;21.95;;;;;;;;;;5059170;28;22414;-49
2024/03/16 04:03:00;;;;;;;41.58;22.15;;;;;;;;;;5056847;28;20035;-50
2024/03/16 04:05:26;;;;;;;41.45;21.92;;;;;;;;;;5062685;28;20017;-50
2024/03/16 04:07:52;;;;;;;40.72;21.77;;;;;;;;;;5060777;28;20052;-48
2024/03/16 04:10:18;;;;;;;39.05;20.48;;;;;;;;;;5063864;28;20024;-49
2024/03/16 04:12:43;;;;;;;40.80;22.10;;;;;;;;;;5065174;28;20032;-48
2024/03/16 04:15:09;;;;;;;40.47;22.17;;;;;;;;;;5066528;28;20492;-48
2024/03/16 04:17:34;;;;;;;46.40;21.98;;;;;;;;;;5057992;28;20021;-49
2024/03/16 04:19:59;;;;;;;40.50;21.00;;;;;;;;;;5046298;28;20037;-48
2024/03/16 04:22:25;;;;;;;39.22;19.60;;;;;;;;;;5055374;28;20560;-51
2024/03/16 04:24:50;;;;;;;40.05;19.70;;;;;;;;;;5066723;28;20031;-47
2024/03/16 04:27:15;;;;;;;43.47;20.77;;;;;;;;;;5064948;28;20024;-51
2024/03/16 04:29:40;;;;;;;39.95;20.35;;;;;;;;;;5066348;28;20547;-48
2024/03/16 04:32:06;;;;;;;33.10;19.52;;;;;;;;;;5064423;28;20124;-49
2024/03/16 04:34:31;;;;;;;39.35;20.38;;;;;;;;;;5048712;28;20703;-47
2024/03/16 04:36:56;;;;;;;37.60;19.17;;;;;;;;;;5060348;28;20068;-49
2024/03/16 04:39:22;;;;;;;35.20;20.10;;;;;;;;;;5046813;28;20036;-48
2024/03/16 04:41:48;;;;;;;38.60;19.95;;;;;;;;;;5050406;28;20052;-48
2024/03/16 04:44:13;;;;;;;39.25;20.85;;;;;;;;;;5051592;28;20437;-50
2024/03/16 04:46:38;;;;;;;45.33;20.50;;;;;;;;;;5013309;28;20496;-50
2024/03/16 04:49:04;;;;;;;36.65;19.30;;;;;;;;;;5066544;28;20098;-50
2024/03/16 04:51:30;;;;;;;35.38;19.70;;;;;;;;;;5063613;28;20036;-50
2024/03/16 04:53:56;;;;;;;45.25;19.48;;;;;;;;;;5060380;28;20033;-52
2024/03/16 04:56:22;;;;;;;39.92;20.30;;;;;;;;;;5045809;28;20139;-46
2024/03/16 04:58:47;;;;;;;36.28;19.33;;;;;;;;;;5045831;28;20460;-48
2024/03/16 05:01:13;;;;;;;37.40;20.23;;;;;;;;;;5045283;28;20100;-48
2024/03/16 05:03:38;;;;;;;35.42;20.02;;;;;;;;;;5046619;28;20429;-52
2024/03/16 05:06:04;;;;;;;34.55;19.33;;;;;;;;;;5044731;28;20138;-48
2024/03/16 05:08:29;;;;;;;38.28;20.27;;;;;;;;;;5048962;28;20448;-50
2024/03/16 05:10:55;;;;;;;35.15;20.35;;;;;;;;;;5046288;28;20028;-50
2024/03/16 05:13:20;;;;;;;33.83;19.60;;;;;;;;;;5062179;28;20032;-48
2024/03/16 05:15:45;;;;;;;38.85;19.98;;;;;;;;;;5066100;28;20081;-50
2024/03/16 05:18:14;;;;;;;35.60;18.88;;;;;;;;;;5053617;28;20483;-52
2024/03/16 05:20:39;;;;;;;42.35;19.85;;;;;;;;;;5048929;28;20030;-50
2024/03/16 05:23:04;;;;;;;36.38;20.13;;;;;;;;;;5062481;28;20107;-50
2024/03/16 05:25:30;;;;;;;40.10;19.70;;;;;;;;;;5012486;28;20036;-48
2024/03/16 05:27:55;;;;;;;38.00;20.50;;;;;;;;;;5056612;28;20016;-48
2024/03/16 05:30:20;;;;;;;41.63;21.00;;;;;;;;;;5065528;28;20052;-47
2024/03/16 05:32:45;;;;;;;37.55;19.52;;;;;;;;;;5050797;28;20033;-50
2024/03/16 05:35:11;;;;;;;40.50;19.17;;;;;;;;;;5044515;28;20033;-50
2024/03/16 05:37:36;;;;;;;35.50;19.67;;;;;;;;;;5045380;28;20299;-51
2024/03/16 05:40:02;;;;;;;36.60;19.30;;;;;;;;;;5044488;28;20060;-48
2024/03/16 05:42:28;;;;;;;34.78;18.75;;;;;;;;;;5054683;28;20409;-47
2024/03/16 05:44:53;;;;;;;31.05;18.30;;;;;;;;;;5065745;28;20431;-49
2024/03/16 05:47:22;;;;;;;34.10;18.58;;;;;;;;;;5056189;28;20112;-50
2024/03/16 05:49:47;;;;;;;28.20;17.02;;;;;;;;;;5044493;28;20145;-49
2024/03/16 05:52:12;;;;;;;34.65;18.08;;;;;;;;;;5052295;28;20133;-48
2024/03/16 05:54:38;;;;;;;37.60;18.95;;;;;;;;;;5063736;28;20033;-50
2024/03/16 05:57:03;;;;;;;36.60;18.45;;;;;;;;;;5062995;28;21189;-49
2024/03/16 05:59:29;;;;;;;35.05;18.10;;;;;;;;;;5065374;28;20021;-49
2024/03/16 06:01:55;;;;;;;37.28;18.20;;;;;;;;;;5062778;28;20052;-50
2024/03/16 06:04:20;;;;;;;33.70;18.02;;;;;;;;;;5064992;28;20073;-47
2024/03/16 06:06:46;;;;;;;38.83;17.45;;;;;;;;;;5050472;28;20421;-51
2024/03/16 06:09:11;;;;;;;32.25;15.65;;;;;;;;;;5047070;28;20033;-51
2024/03/16 06:11:37;;;;;;;29.13;16.58;;;;;;;;;;5010375;28;20040;-49
2024/03/16 06:14:04;;;;;;;33.05;17.25;;;;;;;;;;5064630;28;20051;-52
2024/03/16 06:16:29;;;;;;;33.35;17.73;;;;;;;;;;5044681;28;20421;-48
2024/03/16 06:18:55;;;;;;;40.05;19.13;;;;;;;;;;5011558;28;20036;-48
2024/03/16 06:21:20;;;;;;;30.48;17.77;;;;;;;;;;5044500;28;20035;-48
2024/03/16 06:23:46;;;;;;;33.03;18.25;;;;;;;;;;5064410;28;20082;-51
2024/03/16 06:26:17;;;;;;;30.35;16.67;;;;;;;;;;5063219;28;20032;-51
2024/03/16 06:28:46;;;;;;;31.70;17.15;;;;;;;;;;5064587;28;20031;-47
2024/03/16 06:31:12;;;;;;;;;;;;;;;;;;5043677;28;20036;-48
2024/03/16 06:33:44;;;;;;;30.65;16.55;;;;;;;;;;5063433;28;19912;-47
2024/03/16 06:36:10;;;;;;;28.90;16.65;;;;;;;;;;5063418;28;20024;-47
2024/03/16 06:38:35;;;;;;;26.88;15.10;;;;;;;;;;5053465;28;20460;-47
2024/03/16 06:41:00;;;;;;;27.35;15.43;;;;;;;;;;5049552;28;20036;-46
2024/03/16 06:43:26;;;;;;;26.92;14.93;;;;;;;;;;5045498;28;20013;-50
2024/03/16 06:45:51;;;;;;;25.85;14.90;;;;;;;;;;5044601;28;20548;-52
2024/03/16 06:48:16;;;;;;;27.73;14.63;;;;;;;;;;5060664;28;20496;-49
2024/03/16 06:50:44;;;;;;;31.65;16.05;;;;;;;;;;5059205;28;20033;-52
2024/03/16 06:53:09;;;;;;;29.83;16.45;;;;;;;;;;5040935;28;20405;-49
2024/03/16 06:55:34;;;;;;;27.55;15.65;;;;;;;;;;5062471;28;20024;-48
2024/03/16 06:58:00;;;;;;;28.30;15.40;;;;;;;;;;5061886;28;20030;-48
2024/03/16 07:00:26;;;;;;;32.55;14.82;;;;;;;;;;5063930;28;20039;-50
2024/03/16 07:02:52;;;;;;;23.63;13.45;;;;;;;;;;5061828;28;20357;-49
2024/03/16 07:05:17;;;;;;;34.63;15.93;;;;;;;;;;5061902;28;20460;-48
2024/03/16 07:07:43;;;;;;;32.17;16.52;;;;;;;;;;5046789;28;20073;-48
2024/03/16 07:10:08;;;;;;;31.67;17.10;;;;;;;;;;5043655;28;20432;-48
2024/03/16 07:12:34;;;;;;;29.48;17.13;;;;;;;;;;5025601;28;20056;-50
2024/03/16 07:15:00;;;;;;;31.10;15.43;;;;;;;;;;5043439;28;20033;-51
2024/03/16 07:17:26;;;;;;;36.63;16.17;;;;;;;;;;5050719;28;20029;-51
2024/03/16 07:19:52;;;;;;;27.70;16.05;;;;;;;;;;5044962;28;21194;-50
2024/03/16 07:22:17;;;;;;;33.22;16.08;;;;;;;;;;5054530;28;20931;-52
2024/03/16 07:24:43;;;;;;;28.05;16.05;;;;;;;;;;5043373;28;20433;-47
2024/03/16 07:27:09;;;;;;;34.22;17.92;;;;;;;;;;5043164;28;20085;-50
2024/03/16 07:29:35;;;;;;;33.25;17.08;;;;;;;;;;5043776;28;20025;-50
2024/03/16 07:32:00;;;;;;;38.95;18.63;;;;;;;;;;5048624;28;20396;-47
2024/03/16 07:34:25;;;;;;;36.58;18.73;;;;;;;;;;5052014;28;20500;-49
2024/03/16 07:36:51;;;;;;;50.03;24.95;;;;;;;;;;5047441;28;20115;-51
2024/03/16 07:39:16;;;;;;;45.58;22.17;;;;;;;;;;5063787;28;20016;-49
2024/03/16 07:41:42;;;;;;;36.08;19.75;;;;;;;;;;5061420;28;20538;-51
2024/03/16 07:44:07;;;;;;;35.25;18.38;;;;;;;;;;5063075;28;20063;-49
2024/03/16 07:46:32;;;;;;;36.38;19.92;;;;;;;;;;5058124;28;20416;-49
2024/03/16 07:48:59;;;;;;;36.78;17.65;;;;;;;;;;5041983;28;20513;-46
2024/03/16 07:51:28;;;;;;;37.03;18.95;;;;;;;;;;5043543;28;20603;-48
2024/03/16 07:53:55;;;;;;;37.55;19.08;;;;;;;;;;5042815;28;20029;-48
2024/03/16 07:56:20;;;;;;;34.30;17.35;;;;;;;;;;5043206;28;20028;-52
2024/03/16 07:58:46;;;;;;;32.58;18.17;;;;;;;;;;5063418;28;20393;-48
2024/03/16 08:01:12;;;;;;;35.17;17.08;;;;;;;;;;5061779;28;20032;-50
2024/03/16 08:03:37;;;;;;;33.88;17.63;;;;;;;;;;5044495;28;20385;-46
2024/03/16 08:06:07;;;;;;;32.55;17.75;;;;;;;;;;5054495;28;20056;-50
2024/03/16 08:08:32;;;;;;;31.90;17.25;;;;;;;;;;5060831;28;20094;-47
2024/03/16 08:10:58;;;;;;;38.40;17.65;;;;;;;;;;5057406;28;20068;-47
2024/03/16 08:13:23;;;;;;;35.83;16.80;;;;;;;;;;5043427;28;20409;-49
2024/03/16 08:15:49;;;;;;;31.88;17.90;;;;;;;;;;5043102;28;20302;-47
2024/03/16 08:18:14;;;;;;;36.42;18.23;;;;;;;;;;5046213;28;20029;-46
2024/03/16 08:20:39;;;;;;;33.60;16.55;;;;;;;;;;5043097;28;20028;-48
2024/03/16 08:23:04;;;;;;;31.75;17.52;;;;;;;;;;5061044;28;20024;-49
2024/03/16 08:25:32;;;;;;;35.85;18.70;;;;;;;;;;5063031;28;20052;-51
2024/03/16 08:27:57;;;;;;;41.58;20.42;;;;;;;;;;5047086;28;20021;-50
2024/03/16 08:30:22;;;;;;;43.30;20.40;;;;;;;;;;5042419;28;20112;-49
2024/03/16 08:32:48;;;;;;;45.10;19.70;;;;;;;;;;5043813;28;20452;-47
2024/03/16 08:35:13;;;;;;;35.67;19.00;;;;;;;;;;5043019;28;20303;-49
2024/03/16 08:37:38;;;;;;;38.78;20.17;;;;;;;;;;5053452;28;20481;-49
2024/03/16 08:40:11;;;;;;;37.17;18.42;;;;;;;;;;5063293;28;20028;-52
2024/03/16 08:42:38;;;;;;;34.28;18.92;;;;;;;;;;5051332;28;20021;-51
2024/03/16 08:45:04;;;;;;;36.45;19.75;;;;;;;;;;5042939;28;20021;-49
2024/03/16 08:47:29;;;;;;;33.17;18.90;;;;;;;;;;5053111;28;20404;-51
2024/03/16 08:49:55;;;;;;;33.45;17.45;;;;;;;;;;5060807;28;20032;-48
2024/03/16 08:52:20;;;;;;;35.13;17.88;;;;;;;;;;5051187;28;20023;-49
2024/03/16 08:54:46;;;;;;;34.67;18.33;;;;;;;;;;5049736;28;20510;-45
2024/03/16 08:57:11;;;;;;;35.67;19.20;;;;;;;;;;5051058;28;20472;-50
2024/03/16 08:59:38;;;;;;;36.45;19.85;;;;;;;;;;5066182;28;20048;-52
2024/03/16 09:02:03;;;;;;;34.38;19.70;;;;;;;;;;5063689;28;20024;-49
2024/03/16 09:04:29;;;;;;;37.38;20.65;;;;;;;;;;5066207;28;20017;-48
2024/03/16 09:06:54;;;;;;;42.33;22.23;;;;;;;;;;5054775;28;20493;-46
2024/03/16 09:09:21;;;;;;;51.95;25.15;;;;;;;;;;5047098;28;20028;-51
2024/03/16 09:11:47;;;;;;;49.45;24.02;;;;;;;;;;5049480;28;20455;-50
2024/03/16 09:14:12;;;;;;;44.97;22.55;;;;;;;;;;5066064;28;20024;-46
2024/03/16 09:16:40;;;;;;;42.72;20.67;;;;;;;;;;5063790;28;20032;-47
2024/03/16 09:19:09;;;;;;;37.03;20.20;;;;;;;;;;5065630;28;20416;-48
2024/03/16 09:21:34;;;;;;;42.08;20.45;;;;;;;;;;5058285;28;20025;-46
2024/03/16 09:23:59;;;;;;;34.28;20.00;;;;;;;;;;5045776;28;20048;-48
2024/03/16 09:26:25;;;;;;;37.30;21.15;;;;;;;;;;5045336;28;20025;-50
2024/03/16 09:28:51;;;;;;;36.80;20.05;;;;;;;;;;5046280;28;20036;-45
2024/03/16 09:31:16;;;;;;;37.65;20.95;;;;;;;;;;5044327;28;20405;-50
2024/03/16 09:33:42;;;;;;;40.78;21.88;;;;;;;;;;5046784;28;20017;-49
2024/03/16 09:36:07;;;;;;;38.05;21.27;;;;;;;;;;5044549;28;20487;-50
2024/03/16 09:38:32;;;;;;;38.75;21.95;;;;;;;;;;4994419;28;20040;-46
2024/03/16 09:40:58;;;;;;;42.17;22.92;;;;;;;;;;5044453;28;20468;-52
2024/03/16 09:43:24;;;;;;;36.42;20.27;;;;;;;;;;5062461;28;20479;-51
2024/03/16 09:45:49;;;;;;;38.80;21.75;;;;;;;;;;5065257;28;20027;-47
2024/03/16 09:48:14;;;;;;;42.13;22.27;;;;;;;;;;5063285;28;20389;-48
2024/03/16 09:50:44;;;;;;;37.83;22.17;;;;;;;;;;5063438;28;20024;-49
2024/03/16 09:53:09;;;;;;;;;;;;;;;;;;5048825;28;20040;-49
2024/03/16 09:55:34;;;;;;;38.37;20.77;;;;;;;;;;5045400;28;20381;-50
2024/03/16 09:57:59;;;;;;;36.90;20.45;;;;;;;;;;5058737;28;20036;-49
2024/03/16 10:00:26;;;;;;;36.92;20.38;;;;;;;;;;5058822;28;20434;-50
2024/03/16 10:02:51;;;;;;;39.03;21.85;;;;;;;;;;5057814;28;20026;-49
2024/03/16 10:05:17;;;;;;;36.75;20.90;;;;;;;;;;5065012;28;20016;-50
2024/03/16 10:07:42;;;;;;;40.42;21.58;;;;;;;;;;5061541;28;20386;-47
2024/03/16 10:10:15;;;;;;;39.65;20.70;;;;;;;;;;5065076;28;20565;-52
2024/03/16 10:12:43;;;;;;;35.97;20.88;;;;;;;;;;5053951;28;20048;-44
2024/03/16 10:15:09;;;;;;;39.15;20.67;;;;;;;;;;5023358;28;20029;-49
2024/03/16 10:17:38;;;;;;;37.13;20.98;;;;;;;;;;5055883;28;20021;-49
2024/03/16 10:20:15;;;;;;;34.85;20.50;;;;;;;;;;5054637;28;20035;-50
2024/03/16 10:22:41;;;;;;;38.13;19.95;;;;;;;;;;5062540;28;20083;-50
2024/03/16 10:25:09;;;;;;;32.85;19.88;;;;;;;;;;5063576;28;20044;-46
2024/03/16 10:27:35;;;;;;;32.70;19.02;;;;;;;;;;5044729;28;20032;-47
2024/03/16 10:30:00;;;;;;;45.03;20.90;;;;;;;;;;5044329;28;20028;-49
2024/03/16 10:32:26;;;;;;;47.47;21.63;;;;;;;;;;5044350;28;20123;-51
2024/03/16 10:34:51;;;;;;;36.17;20.33;;;;;;;;;;5043630;28;20029;-46
2024/03/16 10:37:17;;;;;;;38.45;20.42;;;;;;;;;;5052451;28;20024;-49
2024/03/16 10:39:44;;;;;;;40.25;20.70;;;;;;;;;;5028796;28;20489;-51
2024/03/16 10:42:12;;;;;;;37.40;21.30;;;;;;;;;;5055358;28;20079;-49
2024/03/16 10:44:37;;;;;;;32.17;19.10;;;;;;;;;;5044620;28;20021;-48
2024/03/16 10:47:05;;;;;;;38.70;20.65;;;;;;;;;;5031170;28;20077;-48
2024/03/16 10:49:30;;;;;;;39.97;20.13;;;;;;;;;;5062180;28;20415;-48
2024/03/16 10:51:56;;;;;;;39.13;20.40;;;;;;;;;;5027252;28;20082;-48
2024/03/16 10:54:22;;;;;;;37.08;21.02;;;;;;;;;;5024323;28;20040;-48
2024/03/16 10:56:48;;;;;;;41.58;21.25;;;;;;;;;;5043331;28;20470;-49
2024/03/16 10:59:29;;;;;;;39.95;22.73;;;;;;;;;;5044810;28;20036;-48
2024/03/16 11:01:55;;;;;;;38.45;19.85;;;;;;;;;;5043691;28;20037;-49
2024/03/16 11:04:20;;;;;;;45.53;21.42;;;;;;;;;;5044105;28;20597;-49
2024/03/16 11:06:47;;;;;;;36.92;21.13;;;;;;;;;;5045609;28;20056;-49
2024/03/16 11:09:32;;;;;;;34.30;19.83;;;;;;;;;;5052915;28;20317;-50
2024/03/16 11:12:00;;;;;;;34.67;19.90;;;;;;;;;;5059867;28;20028;-49
2024/03/16 11:14:25;;;;;;;38.95;20.52;;;;;;;;;;5054169;28;20123;-50
2024/03/16 11:16:50;;;;;;;35.63;20.02;;;;;;;;;;5050587;28;20132;-48
2024/03/16 11:19:21;;;;;;;35.70;19.92;;;;;;;;;;5043420;28;20473;-51
2024/03/16 11:21:48;;;;;;;32.78;19.90;;;;;;;;;;5061174;28;20028;-50
2024/03/16 11:24:14;;;;;;;35.35;19.15;;;;;;;;;;5061510;28;20485;-48
2024/03/16 11:26:40;;;;;;;33.67;18.65;;;;;;;;;;5058944;28;20039;-46
2024/03/16 11:29:15;;;;;;;32.58;19.17;;;;;;;;;;5043975;28;20075;-49
2024/03/16 11:31:41;;;;;;;33.33;18.65;;;;;;;;;;5046185;28;20037;-50
2024/03/16 11:34:11;;;;;;;41.20;21.15;;;;;;;;;;5053166;28;20135;-48
2024/03/16 11:36:41;;;;;;;37.17;20.08;;;;;;;;;;5044631;28;20599;-47
2024/03/16 11:39:13;;;;;;;42.65;22.70;;;;;;;;;;5049622;28;20450;-48
2024/03/16 11:41:44;;;;;;;51.08;26.27;;;;;;;;;;5043436;28;20439;-47
2024/03/16 11:44:19;;;;;;;46.80;28.15;;;;;;;;;;5043360;28;20056;-48
2024/03/16 11:46:45;;;;;;;41.72;23.02;;;;;;;;;;5046475;28;20786;-53
2024/03/16 11:49:11;;;;;;;64.75;29.58;;;;;;;;;;5063563;28;20492;-47
2024/03/16 11:51:37;;;;;;;40.35;21.52;;;;;;;;;;5058698;28;20107;-48
2024/03/16 11:54:03;;;;;;;42.58;21.17;;;;;;;;;;4975099;28;20167;-49
2024/03/16 11:56:29;;;;;;;38.85;21.48;;;;;;;;;;5044040;28;20043;-49
2024/03/16 11:58:54;;;;;;;35.85;20.02;;;;;;;;;;5063501;28;20036;-48
2024/03/16 12:01:21;;;;;;;44.25;23.52;;;;;;;;;;5060977;28;20398;-49
2024/03/16 12:03:48;;;;;;;36.25;20.73;;;;;;;;;;5042149;28;20029;-47
2024/03/16 12:06:14;;;;;;;36.22;21.75;;;;;;;;;;5040984;28;20045;-50
2024/03/16 12:08:39;;;;;;;40.00;21.58;;;;;;;;;;5043092;28;20496;-47
2024/03/16 12:11:08;;;;;;;44.83;23.13;;;;;;;;;;5007687;28;20040;-47
2024/03/16 12:13:33;;;;;;;45.00;23.20;;;;;;;;;;5061195;28;20044;-46
2024/03/16 12:15:59;;;;;;;41.28;24.13;;;;;;;;;;5060875;28;20026;-48
2024/03/16 12:18:25;;;;;;;44.72;24.17;;;;;;;;;;5048164;28;20477;-46
2024/03/16 12:20:51;;;;;;;46.08;24.73;;;;;;;;;;5007508;28;20068;-52
2024/03/16 12:23:18;;;;;;;51.63;25.17;;;;;;;;;;5043019;28;20554;-46
2024/03/16 12:25:43;;;;;;;48.63;26.27;;;;;;;;;;5042822;28;20025;-50
2024/03/16 12:28:09;;;;;;;54.58;28.98;;;;;;;;;;5057716;28;20085;-48
2024/03/16 12:30:34;;;;;;;76.28;34.47;;;;;;;;;;5063036;28;20025;-48
2024/03/16 12:33:00;;;;;;;88.28;38.08;;;;;;;;;;5052845;28;20078;-47
2024/03/16 12:35:28;;;;;;;66.18;33.67;;;;;;;;;;5045763;28;20023;-48
2024/03/16 12:37:53;;;;;;;56.58;29.55;;;;;;;;;;5059603;28;20035;-48
2024/03/16 12:40:19;;;;;;;59.50;29.95;;;;;;;;;;5049919;28;20041;-49
2024/03/16 12:42:44;;;;;;;57.95;29.65;;;;;;;;;;5046753;28;20025;-52
2024/03/16 12:45:10;;;;;;;49.47;27.25;;;;;;;;;;5046668;28;20027;-49
2024/03/16 12:47:35;;;;;;;53.30;27.52;;;;;;;;;;5046072;28;20451;-49
2024/03/16 12:50:00;;;;;;;45.50;27.65;;;;;;;;;;5046758;28;20484;-50
2024/03/16 12:52:26;;;;;;;41.60;25.20;;;;;;;;;;5047288;28;20094;-51
2024/03/16 12:54:51;;;;;;;49.13;26.48;;;;;;;;;;5054299;28;20024;-50
2024/03/16 12:57:16;;;;;;;53.92;27.95;;;;;;;;;;5052999;28;20021;-47
2024/03/16 12:59:42;;;;;;;55.22;29.52;;;;;;;;;;5046154;28;20473;-52
2024/03/16 13:02:08;;;;;;;62.25;30.10;;;;;;;;;;5049570;28;20028;-49
2024/03/16 13:04:33;;;;;;;57.63;29.90;;;;;;;;;;5046142;28;20345;-48
2024/03/16 13:06:58;;;;;;;51.42;28.65;;;;;;;;;;5048689;28;20048;-46
2024/03/16 13:09:25;;;;;;;49.05;28.67;;;;;;;;;;5041860;28;20029;-45
2024/03/16 13:11:51;;;;;;;46.25;27.73;;;;;;;;;;5044431;28;20040;-48
2024/03/16 13:14:16;;;;;;;50.50;30.27;;;;;;;;;;5045520;28;20082;-50
2024/03/16 13:16:42;;;;;;;45.15;26.85;;;;;;;;;;5053136;28;20031;-50
2024/03/16 13:19:08;;;;;;;48.85;27.73;;;;;;;;;;5063589;28;20025;-49
2024/03/16 13:21:33;;;;;;;49.17;27.25;;;;;;;;;;5062981;28;20700;-50
2024/03/16 13:24:02;;;;;;;45.20;26.10;;;;;;;;;;5029882;28;20028;-49
2024/03/16 13:26:31;;;;;;;54.38;29.40;;;;;;;;;;5046209;28;20025;-51
2024/03/16 13:28:56;;;;;;;52.47;26.70;;;;;;;;;;5057946;28;20025;-50
2024/03/16 13:31:25;;;;;;;43.08;26.08;;;;;;;;;;5058721;28;20035;-49
2024/03/16 13:33:50;;;;;;;48.50;27.17;;;;;;;;;;5065824;28;20028;-48
2024/03/16 13:36:15;;;;;;;43.35;25.90;;;;;;;;;;5044284;28;20443;-51
2024/03/16 13:38:43;;;;;;;47.10;27.30;;;;;;;;;;5046208;28;20480;-52
2024/03/16 13:41:08;;;;;;;48.42;27.15;;;;;;;;;;5045377;28;20032;-49
2024/03/16 13:43:36;;;;;;;45.65;26.58;;;;;;;;;;5044382;28;20029;-49
2024/03/16 13:46:01;;;;;;;49.17;28.48;;;;;;;;;;5045638;28;20032;-47
2024/03/16 13:48:28;;;;;;;50.20;28.83;;;;;;;;;;5046716;28;20029;-49
2024/03/16 13:50:54;;;;;;;45.97;27.73;;;;;;;;;;5045380;28;20025;-49
2024/03/16 13:53:20;;;;;;;46.67;26.83;;;;;;;;;;5061306;28;20504;-49
2024/03/16 13:55:46;;;;;;;43.17;25.55;;;;;;;;;;5063998;28;20465;-50
2024/03/16 13:58:11;;;;;;;44.70;25.38;;;;;;;;;;5050946;28;20037;-48
2024/03/16 14:00:36;;;;;;;45.55;25.77;;;;;;;;;;5044798;28;20397;-50
2024/03/16 14:03:02;;;;;;;50.47;26.48;;;;;;;;;;5059716;28;20435;-49
2024/03/16 14:05:31;;;;;;;48.63;26.98;;;;;;;;;;5059311;28;20081;-49
2024/03/16 14:07:56;;;;;;;45.08;25.90;;;;;;;;;;5049702;28;20053;-46
2024/03/16 14:10:22;;;;;;;42.88;24.73;;;;;;;;;;5044790;28;20132;-47
2024/03/16 14:12:56;;;;;;;42.95;23.55;;;;;;;;;;5056744;28;20447;-50
2024/03/16 14:15:21;;;;;;;42.30;24.23;;;;;;;;;;5016782;28;20033;-49